Time;durP1;ratioP1;P1;durP2;ratioP2;P2;SDS_P1;SDS_P2;PMS_P1;PMS_P2;Temp;Humidity;BMP_temperature;BMP_pressure;BME280_temperature;BME280_humidity;BME280_pressure;Samples;Min_cycle;Max_cycle;Signal;HPM_P1;HPM_P2
2023/01/12 00:01:59;;;;;;;10.53;2.90;;;;;;;11.17;54.58;99133.50;6974257;28;20209;-84
2023/01/12 00:05:21;;;;;;;10.73;3.00;;;;;;;11.44;54.14;99132.59;6979926;28;20360;-84
2023/01/12 00:08:42;;;;;;;4.17;2.67;;;;;;;11.38;53.74;99136.09;6981453;28;20225;-84
2023/01/12 00:19:37;;;;;;;3.80;2.30;;;;;;;10.74;55.01;99085.38;6986814;28;20630;-81
2023/01/12 00:22:59;;;;;;;3.20;2.10;;;;;;;11.44;54.02;99131.75;6987316;28;20202;-82
2023/01/12 00:26:20;;;;;;;5.87;2.80;;;;;;;11.29;54.70;99137.34;6984778;28;20320;-83
2023/01/12 00:29:43;;;;;;;3.40;2.03;;;;;;;11.35;54.07;99141.06;7005574;28;20320;-81
2023/01/12 00:33:05;;;;;;;4.43;2.40;;;;;;;11.59;53.69;99140.56;7013223;28;20205;-81
2023/01/12 00:36:27;;;;;;;4.67;2.20;;;;;;;11.56;53.55;99132.84;7012146;28;20355;-82
2023/01/12 00:39:48;;;;;;;4.33;2.37;;;;;;;11.54;54.19;99137.59;7012966;28;20212;-81
2023/01/12 00:46:55;;;;;;;6.17;2.50;;;;;;;11.15;54.21;99108.59;6985766;28;20596;-81
2023/01/12 00:50:16;;;;;;;6.70;2.60;;;;;;;11.34;53.09;99066.53;7012471;28;20232;-81
2023/01/12 00:53:38;;;;;;;5.03;2.70;;;;;;;11.67;53.42;99132.28;7012561;28;20197;-81
2023/01/12 00:57:00;;;;;;;3.90;2.40;;;;;;;11.96;52.60;99143.56;7011231;28;20249;-82
2023/01/12 01:00:22;;;;;;;4.23;2.20;;;;;;;11.40;53.93;99131.31;7010151;28;20205;-81
2023/01/12 01:03:49;;;;;;;4.47;2.40;;;;;;;11.28;54.08;99124.03;7013430;28;20224;-82
2023/01/12 01:07:11;;;;;;;4.57;2.60;;;;;;;11.03;54.78;99150.69;7012613;28;20221;-81
2023/01/12 01:10:33;;;;;;;8.80;2.40;;;;;;;11.08;54.73;99125.78;7013041;28;20359;-83
2023/01/12 01:13:55;;;;;;;5.27;2.40;;;;;;;10.84;55.24;99129.00;7012729;28;20227;-82
2023/01/12 01:17:16;;;;;;;3.97;2.20;;;;;;;10.88;55.73;99128.41;7013876;28;20579;-81
2023/01/12 01:20:42;;;;;;;8.17;3.87;;;;;;;11.05;55.04;99134.31;7013180;28;20210;-82
2023/01/12 01:24:21;;;;;;;2.93;2.63;;;;;;;10.76;55.48;99100.34;7012837;28;20247;-81
2023/01/12 01:27:55;;;;;;;4.20;2.33;;;;;;;11.05;54.97;99134.31;7014554;28;20222;-82
2023/01/12 01:31:18;;;;;;;5.17;2.50;;;;;;;11.26;55.16;99151.22;7012083;28;20309;-83
2023/01/12 01:34:40;;;;;;;4.70;2.70;;;;;;;11.27;54.27;99135.88;7011520;28;20255;-83
2023/01/12 01:38:04;;;;;;;7.87;2.43;;;;;;;10.93;55.56;99133.19;7017774;28;20240;-82
2023/01/12 01:41:27;;;;;;;5.90;2.97;;;;;;;10.99;55.37;99154.00;7018044;28;20202;-82
2023/01/12 01:44:50;;;;;;;2.87;2.17;;;;;;;11.05;54.49;99131.59;7016722;28;20194;-82
2023/01/12 01:48:14;;;;;;;4.87;2.33;;;;;;;10.89;55.17;99142.72;7018011;28;20284;-81
2023/01/12 01:51:36;;;;;;;4.50;2.60;;;;;;;10.99;54.65;99151.28;7017641;28;20217;-82
2023/01/12 01:55:03;;;;;;;4.10;2.10;;;;;;;10.76;55.21;99161.53;7017458;28;20270;-82
2023/01/12 01:59:02;;;;;;;3.13;2.00;;;;;;;11.10;54.19;99158.81;7017980;28;20209;-82
2023/01/12 02:02:25;;;;;;;4.20;2.00;;;;;;;11.24;54.25;99157.84;7017817;28;20201;-82
2023/01/12 02:05:52;;;;;;;5.03;1.97;;;;;;;11.11;53.89;99164.00;7017214;28;20233;-82
2023/01/12 02:09:20;;;;;;;7.87;2.20;;;;;;;11.18;53.84;99151.41;7017216;28;20229;-82
2023/01/12 02:16:45;;;;;;;8.00;2.73;;;;;;;11.06;54.04;99160.25;7016193;28;20214;-82
2023/01/12 02:20:33;;;;;;;5.20;2.43;;;;;;;11.25;53.45;99146.00;7016796;28;20202;-81
2023/01/12 02:24:38;;;;;;;4.50;2.10;;;;;;;10.78;54.95;99145.97;7016414;28;20639;-81
2023/01/12 02:28:34;;;;;;;6.80;2.43;;;;;;;10.83;55.22;99122.78;6984828;28;20243;-82
2023/01/12 02:32:01;;;;;;;6.50;2.30;;;;;;;10.77;55.25;99133.50;6987115;28;20221;-81
2023/01/12 02:35:27;;;;;;;2.57;2.10;;;;;;;10.24;55.34;99075.72;6987887;28;20261;-81
2023/01/12 02:38:54;;;;;;;4.53;2.27;;;;;;;10.78;54.86;99111.75;6987342;28;20191;-82
2023/01/12 02:46:10;;;;;;;6.50;2.43;;;;;;;10.82;54.56;99104.09;6987524;28;20222;-82
2023/01/12 02:49:37;;;;;;;8.40;2.80;;;;;;;10.85;54.08;99082.09;6988237;28;20214;-82
2023/01/12 02:53:05;;;;;;;6.60;2.17;;;;;;;10.84;54.27;99083.13;6988011;28;20182;-82
2023/01/12 02:56:31;;;;;;;6.20;2.80;;;;;;;11.06;53.66;99071.22;6987068;28;20229;-82
2023/01/12 02:59:53;;;;;;;2.57;1.80;;;;;;;10.99;54.15;99059.56;6987373;28;20210;-82
2023/01/12 03:03:21;;;;;;;5.67;2.17;;;;;;;11.02;53.26;99053.75;6987127;28;20210;-83
2023/01/12 03:06:46;;;;;;;6.33;2.43;;;;;;;10.98;53.62;99057.91;7003474;28;20300;-82
2023/01/12 03:10:18;;;;;;;5.23;2.07;;;;;;;11.13;52.97;99031.56;7013622;28;20249;-83
2023/01/12 03:13:43;;;;;;;4.93;1.93;;;;;;;10.99;52.82;99046.06;7012430;28;20247;-82
2023/01/12 03:17:08;;;;;;;4.00;2.20;;;;;;;11.73;51.99;99058.53;7008986;28;20224;-82
2023/01/12 03:20:33;;;;;;;6.13;2.40;;;;;;;11.10;52.47;99034.69;7009320;28;20310;-83
2023/01/12 03:24:00;;;;;;;4.57;2.00;;;;;;;11.22;51.79;98988.00;7009010;28;20747;-82
2023/01/12 03:27:25;;;;;;;4.83;2.37;;;;;;;12.06;50.76;99075.59;7007917;28;20618;-82
2023/01/12 03:30:55;;;;;;;7.87;2.30;;;;;;;11.69;51.57;99076.19;7006706;28;20320;-83
2023/01/12 03:34:16;;;;;;;14.33;2.60;;;;;;;11.86;51.03;99064.78;7006467;28;20216;-83
2023/01/12 03:37:41;;;;;;;6.00;2.20;;;;;;;12.03;49.85;99033.59;7006984;28;20227;-83
2023/01/12 03:41:06;;;;;;;10.70;3.33;;;;;;;12.24;50.00;99064.97;7005674;28;20299;-82
2023/01/12 03:44:32;;;;;;;5.60;2.63;;;;;;;12.33;49.45;99045.63;7003432;28;20274;-83
2023/01/12 03:47:55;;;;;;;6.60;2.13;;;;;;;11.95;49.72;99047.34;7004205;28;20312;-82
2023/01/12 03:51:20;;;;;;;7.50;2.43;;;;;;;12.09;50.02;99057.09;7004505;28;20320;-83
2023/01/12 03:54:43;;;;;;;6.80;2.27;;;;;;;11.78;50.15;99045.22;7003561;28;20217;-82
2023/01/12 03:58:06;;;;;;;4.13;2.40;;;;;;;12.33;49.45;99063.75;7004052;28;20293;-82
2023/01/12 04:01:27;;;;;;;3.00;1.87;;;;;;;12.22;49.36;99054.38;7004443;28;20214;-83
2023/01/12 04:04:50;;;;;;;3.93;2.13;;;;;;;11.85;50.55;99028.00;7003810;28;20292;-83
2023/01/12 04:08:14;;;;;;;5.57;2.57;;;;;;;11.89;50.54;99040.06;7004115;28;20197;-83
2023/01/12 04:15:15;;;;;;;4.97;2.77;;;;;;;12.33;49.87;99047.53;7002719;28;20221;-82
2023/01/12 04:18:37;;;;;;;9.30;2.80;;;;;;;12.42;49.40;99035.44;7003802;28;20278;-82
2023/01/12 04:25:37;;;;;;;7.87;2.50;;;;;;;12.33;49.91;99050.22;7003043;28;20229;-82
2023/01/12 04:28:59;;;;;;;3.73;2.00;;;;;;;12.22;50.10;99048.16;6999429;28;20319;-83
2023/01/12 04:32:22;;;;;;;6.63;3.23;;;;;;;12.47;49.48;99035.63;6975356;28;20283;-82
2023/01/12 04:35:46;;;;;;;7.47;2.00;;;;;;;11.90;51.25;99027.38;6975053;28;20262;-83
2023/01/12 04:39:08;;;;;;;10.53;2.60;;;;;;;12.15;50.56;99047.34;6975693;28;20214;-82
2023/01/12 04:46:09;;;;;;;4.47;2.23;;;;;;;12.08;51.07;99014.91;6974248;28;20313;-83
2023/01/12 04:49:32;;;;;;;5.77;2.40;;;;;;;11.94;51.47;99024.06;6975353;28;20257;-82
2023/01/12 04:52:54;;;;;;;8.70;2.77;;;;;;;12.17;50.68;99012.81;6975344;28;20262;-83
2023/01/12 04:56:15;;;;;;;7.87;2.40;;;;;;;11.86;51.78;98993.72;6975038;28;20312;-82
2023/01/12 04:59:36;;;;;;;6.33;2.50;;;;;;;11.63;52.46;98982.50;6976057;28;20364;-82
2023/01/12 05:03:01;;;;;;;4.63;2.20;;;;;;;11.59;52.45;98998.28;6978666;28;20351;-83
2023/01/12 05:06:24;;;;;;;5.77;2.30;;;;;;;11.55;52.56;98996.16;6982128;28;20237;-82
2023/01/12 05:13:25;;;;;;;7.97;3.00;;;;;;;11.69;52.05;99003.28;6981249;28;20190;-85
2023/01/12 05:16:47;;;;;;;6.53;2.70;;;;;;;11.14;53.91;98981.97;6979524;28;20257;-81
2023/01/12 05:20:10;;;;;;;3.80;2.30;;;;;;;11.65;52.54;98983.13;6982604;28;20339;-85
2023/01/12 05:23:33;;;;;;;9.40;4.43;;;;;;;11.95;51.79;98987.88;6985179;28;20207;-83
2023/01/12 05:26:55;;;;;;;9.03;2.90;;;;;;;11.51;52.30;98939.03;6990946;28;20299;-83
2023/01/12 05:30:16;;;;;;;6.43;3.40;;;;;;;12.22;51.33;98977.88;6992448;28;20705;-83
2023/01/12 05:33:39;;;;;;;4.83;2.50;;;;;;;11.96;51.50;98994.09;6989147;28;20287;-82
2023/01/12 05:37:01;;;;;;;6.33;2.50;;;;;;;12.16;51.50;98989.53;6978979;28;20226;-82
2023/01/12 05:40:24;;;;;;;6.80;2.57;;;;;;;11.67;52.15;98941.34;6979772;28;20210;-83
2023/01/12 05:43:51;;;;;;;9.07;2.53;;;;;;;12.50;51.07;98983.81;6978193;28;20273;-85
2023/01/12 05:47:13;;;;;;;6.70;2.33;;;;;;;12.51;50.81;98990.91;6978855;28;20499;-85
2023/01/12 05:50:34;;;;;;;5.07;2.40;;;;;;;12.62;50.37;98974.00;6978774;28;20268;-85
2023/01/12 05:53:56;;;;;;;6.77;2.70;;;;;;;12.18;51.06;98955.00;6978644;28;20293;-82
2023/01/12 05:57:19;;;;;;;7.97;2.87;;;;;;;12.46;50.94;98977.19;6977786;28;20242;-82
2023/01/12 06:00:40;;;;;;;7.57;3.00;;;;;;;12.06;51.60;98981.00;6978267;28;20658;-82
2023/01/12 06:04:02;;;;;;;10.67;3.47;;;;;;;12.54;50.92;98960.72;6977904;28;20283;-83
2023/01/12 06:07:23;;;;;;;5.10;2.57;;;;;;;12.47;50.67;98963.44;6978528;28;20360;-83
2023/01/12 06:10:45;;;;;;;11.27;3.30;;;;;;;12.66;49.85;98940.91;6978499;28;20282;-83
2023/01/12 06:14:07;;;;;;;6.27;2.30;;;;;;;12.52;50.07;98958.22;6978496;28;20297;-84
2023/01/12 06:17:30;;;;;;;7.20;2.10;;;;;;;12.82;49.51;98948.53;6977892;28;20568;-83
2023/01/12 06:20:52;;;;;;;7.23;2.87;;;;;;;12.24;50.51;98937.94;6987078;28;20225;-83
2023/01/12 06:24:13;;;;;;;6.23;2.60;;;;;;;12.44;50.30;98949.50;6985733;28;20546;-85
2023/01/12 06:27:37;;;;;;;9.57;2.70;;;;;;;12.12;51.10;98950.44;6975672;28;20230;-82
2023/01/12 06:31:01;;;;;;;7.23;2.97;;;;;;;12.23;50.63;98928.16;6984780;28;20391;-83
2023/01/12 06:34:22;;;;;;;7.27;2.50;;;;;;;12.67;50.08;98930.88;7002831;28;20213;-87
2023/01/12 06:37:44;;;;;;;7.27;2.73;;;;;;;12.28;50.19;98915.66;7003232;28;20363;-85
2023/01/12 06:41:07;;;;;;;9.20;2.63;;;;;;;12.57;50.09;98930.53;7003135;28;20278;-86
2023/01/12 06:44:28;;;;;;;4.33;2.57;;;;;;;12.86;49.20;98925.38;7001205;28;20407;-83
2023/01/12 06:47:51;;;;;;;5.37;2.80;;;;;;;12.69;49.94;98931.53;7001832;28;20286;-86
2023/01/12 06:51:12;;;;;;;8.20;2.70;;;;;;;12.92;49.10;98945.34;7002022;28;20222;-83
2023/01/12 06:54:34;;;;;;;4.80;2.40;;;;;;;12.96;48.63;98909.56;7004853;28;20348;-86
2023/01/12 06:57:55;;;;;;;8.33;3.17;;;;;;;12.51;49.50;98907.88;7004700;28;20286;-84
2023/01/12 07:01:17;;;;;;;9.17;2.80;;;;;;;12.58;49.25;98930.31;7003035;28;20247;-83
2023/01/12 07:04:40;;;;;;;4.27;2.40;;;;;;;13.00;49.36;98956.78;6987381;28;20364;-83
2023/01/12 07:08:02;;;;;;;14.60;2.43;;;;;;;12.68;49.46;98921.75;6980414;28;20230;-83
2023/01/12 07:11:24;;;;;;;8.87;3.03;;;;;;;12.50;50.01;98957.59;6976884;28;20283;-83
2023/01/12 07:14:45;;;;;;;5.20;2.20;;;;;;;12.56;50.16;98942.41;6975660;28;20341;-83
2023/01/12 07:18:07;;;;;;;7.63;2.77;;;;;;;12.66;49.67;98919.25;6976835;28;20839;-83
2023/01/12 07:21:30;;;;;;;7.40;2.53;;;;;;;12.36;50.08;98914.59;7000864;28;20568;-84
2023/01/12 07:24:51;;;;;;;10.23;2.73;;;;;;;12.49;50.07;98931.59;7002824;28;20233;-84
2023/01/12 07:28:13;;;;;;;5.93;2.47;;;;;;;12.27;50.55;98929.41;7005380;28;20233;-82
2023/01/12 07:31:34;;;;;;;4.57;2.27;;;;;;;12.33;50.56;98931.25;7005642;28;20430;-82
2023/01/12 07:34:56;;;;;;;5.67;2.30;;;;;;;12.92;48.87;98948.88;7002823;28;20296;-84
2023/01/12 07:38:19;;;;;;;6.17;2.33;;;;;;;13.02;48.21;98929.50;7004478;28;20317;-85
2023/01/12 07:45:19;;;;;;;8.73;2.50;;;;;;;12.66;48.97;98946.31;6995643;28;20721;-83
2023/01/12 07:48:41;;;;;;;7.17;2.33;;;;;;;13.15;48.00;98943.78;6976473;28;20285;-81
2023/01/12 07:52:02;;;;;;;6.80;3.17;;;;;;;13.31;47.91;98935.13;7002959;28;20773;-83
2023/01/12 07:55:25;;;;;;;6.63;2.37;;;;;;;13.14;47.29;98931.28;7002628;28;20602;-84
2023/01/12 07:58:47;;;;;;;10.43;3.00;;;;;;;13.00;48.22;98955.94;6976627;28;20297;-82
2023/01/12 08:02:15;;;;;;;8.23;2.57;;;;;;;13.11;47.51;98961.50;6975788;28;20210;-84
2023/01/12 08:05:37;;;;;;;7.73;2.60;;;;;;;12.69;48.36;98909.88;6985698;28;20275;-83
2023/01/12 08:08:59;;;;;;;6.33;2.60;;;;;;;12.99;48.31;98955.09;6985805;28;20351;-84
2023/01/12 08:12:21;;;;;;;5.47;2.43;;;;;;;12.78;48.86;98932.91;7003249;28;20857;-82
2023/01/12 08:15:45;;;;;;;8.57;2.70;;;;;;;12.30;49.99;98934.38;7002352;28;20780;-82
2023/01/12 08:19:10;;;;;;;4.33;2.10;;;;;;;11.89;49.92;98867.16;7003559;28;20237;-85
2023/01/12 08:22:35;;;;;;;6.27;2.33;;;;;;;12.67;48.92;98904.69;6992203;28;20270;-85
2023/01/12 08:26:00;;;;;;;4.37;2.13;;;;;;;13.15;47.99;98932.13;7002204;28;20228;-83
2023/01/12 08:29:30;;;;;;;6.27;2.53;;;;;;;12.83;48.25;98930.41;7003181;28;20689;-83
2023/01/12 08:32:53;;;;;;;4.70;2.00;;;;;;;12.68;47.97;98870.38;7003314;28;20218;-83
2023/01/12 08:36:16;;;;;;;8.43;2.43;;;;;;;12.87;48.30;98939.75;7006122;28;20710;-82
2023/01/12 08:39:38;;;;;;;6.07;2.97;;;;;;;13.30;47.23;98921.81;7009278;28;20206;-82
2023/01/12 08:43:00;;;;;;;6.70;2.90;;;;;;;13.64;46.51;98932.16;7008064;28;20509;-81
2023/01/12 08:46:23;;;;;;;6.80;2.87;;;;;;;12.97;47.72;98926.59;7007852;28;20380;-83
2023/01/12 08:49:46;;;;;;;8.10;2.53;;;;;;;12.53;48.05;98902.25;7008617;28;20239;-82
2023/01/12 08:53:07;;;;;;;3.07;2.10;;;;;;;12.85;48.07;98925.59;7007209;28;20198;-83
2023/01/12 08:56:30;;;;;;;3.73;2.13;;;;;;;13.44;47.54;98939.59;7007280;28;20221;-82
2023/01/12 08:59:51;;;;;;;3.80;1.90;;;;;;;13.53;46.93;98932.88;6986379;28;20206;-82
2023/01/12 09:03:14;;;;;;;5.10;1.93;;;;;;;13.57;46.70;98934.13;6981184;28;20296;-83
2023/01/12 09:06:38;;;;;;;7.20;2.07;;;;;;;13.81;46.49;98933.28;6981136;28;20214;-82
2023/01/12 09:10:00;;;;;;;4.20;2.30;;;;;;;13.73;46.41;98918.13;6977260;28;20226;-83
2023/01/12 09:13:21;;;;;;;3.53;2.20;;;;;;;13.49;47.00;98942.50;6976607;28;20261;-80
2023/01/12 09:16:43;;;;;;;3.43;2.00;;;;;;;13.64;46.52;98919.44;6976775;28;20724;-80
2023/01/12 09:20:06;;;;;;;7.50;2.10;;;;;;;13.36;46.75;98883.84;6977097;28;20881;-80
2023/01/12 09:23:28;;;;;;;6.30;2.00;;;;;;;13.28;47.40;98948.28;6989757;28;20620;-80
2023/01/12 09:26:49;;;;;;;5.73;2.27;;;;;;;13.93;46.59;98954.00;7000997;28;20319;-79
2023/01/12 09:30:12;;;;;;;3.93;2.20;;;;;;;13.89;45.96;98933.81;6979876;28;20586;-80
2023/01/12 09:33:34;;;;;;;5.37;2.43;;;;;;;13.86;46.11;98925.31;6992658;28;20261;-80
2023/01/12 09:36:58;;;;;;;5.07;2.30;;;;;;;13.03;48.48;98958.22;6999308;28;20306;-78
2023/01/12 09:40:20;;;;;;;6.93;2.03;;;;;;;12.55;49.49;98949.69;6979411;28;20236;-79
2023/01/12 09:47:25;;;;;;;8.67;2.20;;;;;;;13.65;47.64;98963.63;7002369;28;20685;-80
2023/01/12 09:50:51;;;;;;;4.97;2.30;;;;;;;13.52;47.52;98959.13;6982671;28;20221;-80
2023/01/12 09:54:14;;;;;;;5.70;2.40;;;;;;;13.44;48.14;98961.28;6978608;28;20202;-80
2023/01/12 09:58:09;;;;;;;5.60;2.40;;;;;;;13.74;47.87;98962.31;6978916;28;20742;-80
2023/01/12 10:01:30;;;;;;;7.43;2.40;;;;;;;13.46;47.78;98934.81;6978894;28;20221;-80
2023/01/12 10:04:54;;;;;;;6.83;2.43;;;;;;;13.63;47.69;98944.06;7002692;28;20198;-80
2023/01/12 10:08:27;;;;;;;4.03;2.13;;;;;;;13.58;48.04;98922.22;7006203;28;20292;-80
2023/01/12 10:11:57;;;;;;;4.60;2.60;;;;;;;13.78;48.48;98923.72;7006166;28;20620;-80
2023/01/12 10:15:29;;;;;;;6.60;2.10;;;;;;;13.44;48.61;98921.50;7005848;28;20769;-80
2023/01/12 10:18:51;;;;;;;5.07;1.97;;;;;;;14.31;46.89;98911.28;7005937;28;20284;-81
2023/01/12 10:26:04;;;;;;;5.17;2.13;;;;;;;14.04;47.03;98879.25;6980053;28;20226;-79
2023/01/12 10:29:27;;;;;;;4.77;2.00;;;;;;;14.46;46.39;98886.50;6998623;28;20198;-80
2023/01/12 10:32:49;;;;;;;6.43;2.20;;;;;;;14.15;46.61;98886.63;7005711;28;20230;-80
2023/01/12 10:36:16;;;;;;;9.40;2.50;;;;;;;13.90;47.29;98875.00;6992592;28;20245;-79
2023/01/12 10:39:38;;;;;;;4.67;2.20;;;;;;;14.16;47.02;98880.16;6995830;28;20339;-79
2023/01/12 10:43:20;;;;;;;4.67;2.40;;;;;;;14.35;46.55;98870.97;7003456;28;20217;-78
2023/01/12 10:46:43;;;;;;;5.13;2.20;;;;;;;13.88;47.75;98872.53;7005379;28;20226;-78
2023/01/12 10:50:21;;;;;;;6.80;2.23;;;;;;;14.25;47.18;98874.22;7005554;28;20238;-78
2023/01/12 10:53:44;;;;;;;3.43;2.20;;;;;;;14.19;47.00;98880.56;7005985;28;20247;-77
2023/01/12 10:57:13;;;;;;;10.10;2.53;;;;;;;14.69;45.84;98889.34;7005877;28;20275;-79
2023/01/12 11:00:35;;;;;;;4.07;2.40;;;;;;;14.09;47.27;98879.41;7005838;28;20205;-79
2023/01/12 11:04:05;;;;;;;6.33;2.83;;;;;;;14.59;46.12;98867.34;7007939;28;20217;-79
2023/01/12 11:07:28;;;;;;;4.97;2.13;;;;;;;13.90;46.67;98873.13;7010776;28;20218;-79
2023/01/12 11:10:50;;;;;;;4.87;2.40;;;;;;;14.56;46.11;98875.91;7012364;28;20230;-80
2023/01/12 11:14:25;;;;;;;4.43;1.73;;;;;;;13.97;46.66;98854.91;7004468;28;20282;-79
2023/01/12 11:18:06;;;;;;;4.27;2.57;;;;;;;14.14;46.94;98828.84;6994559;28;20366;-79
2023/01/12 11:21:32;;;;;;;2.87;1.97;;;;;;;14.13;47.07;98846.19;7006495;28;20181;-79
2023/01/12 11:24:56;;;;;;;1.93;1.50;;;;;;;14.08;46.72;98831.63;7005494;28;20210;-79
2023/01/12 11:28:22;;;;;;;2.77;1.80;;;;;;;14.39;46.88;98839.66;6987870;28;20208;-79
2023/01/12 11:31:45;;;;;;;2.37;1.90;;;;;;;14.22;46.91;98831.28;6987226;28;20249;-79
2023/01/12 11:35:21;;;;;;;2.47;1.70;;;;;;;14.36;46.69;98840.09;6997732;28;20251;-78
2023/01/12 11:38:45;;;;;;;2.37;1.37;;;;;;;13.90;47.42;98829.78;7007498;28;20262;-79
2023/01/12 11:45:54;;;;;;;2.13;1.50;;;;;;;13.59;48.16;98812.81;7007447;28;20217;-79
2023/01/12 11:49:18;;;;;;;4.70;1.57;;;;;;;14.28;47.29;98816.81;7011111;28;20864;-80
2023/01/12 11:52:41;;;;;;;1.63;1.53;;;;;;;13.74;47.91;98797.84;7002052;28;20228;-79
2023/01/12 11:56:11;;;;;;;2.50;1.53;;;;;;;14.00;47.31;98778.56;7007457;28;20313;-80
2023/01/12 11:59:37;;;;;;;1.87;1.50;;;;;;;14.09;47.75;98811.63;7009079;28;20190;-79
2023/01/12 12:03:07;;;;;;;2.97;1.27;;;;;;;14.11;47.63;98813.03;6984499;28;20278;-80
2023/01/12 12:06:48;;;;;;;5.63;1.57;;;;;;;14.03;48.36;98791.66;6996623;28;20279;-80
2023/01/12 12:10:20;;;;;;;2.50;1.70;;;;;;;13.76;48.87;98797.63;6986569;28;20244;-79
2023/01/12 12:13:50;;;;;;;2.17;1.77;;;;;;;13.90;48.61;98789.13;6990903;28;20215;-80
2023/01/12 12:17:16;;;;;;;4.27;1.70;;;;;;;13.62;49.06;98799.63;6993796;28;20223;-79
2023/01/12 12:20:43;;;;;;;2.73;1.53;;;;;;;13.72;48.97;98791.81;6998266;28;20561;-77
2023/01/12 12:24:12;;;;;;;2.33;1.50;;;;;;;14.23;48.10;98796.88;7002391;28;20220;-77
2023/01/12 12:27:41;;;;;;;2.20;1.60;;;;;;;14.18;48.43;98778.56;6990604;28;20280;-76
2023/01/12 12:31:30;;;;;;;1.50;1.33;;;;;;;14.43;47.96;98786.56;7002229;28;20233;-77
2023/01/12 12:35:10;;;;;;;3.03;1.70;;;;;;;14.91;47.14;98781.88;6993027;28;20275;-77
2023/01/12 12:38:42;;;;;;;3.33;1.97;;;;;;;15.47;44.96;98783.03;7002276;28;20202;-77
2023/01/12 12:46:07;;;;;;;2.80;1.87;;;;;;;15.39;45.59;98763.56;7001224;28;20224;-78
2023/01/12 12:49:32;;;;;;;1.43;1.33;;;;;;;14.80;46.79;98774.56;7002409;28;20190;-76
2023/01/12 12:53:03;;;;;;;4.17;2.10;;;;;;;15.25;45.81;98767.53;6977648;28;20234;-77
2023/01/12 12:56:27;;;;;;;1.93;1.70;;;;;;;14.72;46.77;98774.88;6977926;28;20232;-77
2023/01/12 12:59:53;;;;;;;1.47;1.37;;;;;;;14.76;47.08;98776.06;6974489;28;20217;-78
2023/01/12 13:03:45;;;;;;;1.60;1.50;;;;;;;15.17;46.32;98767.88;6983136;28;20685;-77
2023/01/12 13:07:13;;;;;;;2.20;1.70;;;;;;;14.92;46.57;98772.69;6974876;28;20725;-80
2023/01/12 13:10:34;;;;;;;3.03;2.47;;;;;;;14.27;47.97;98751.97;7002016;28;20343;-79
2023/01/12 13:13:58;;;;;;;3.07;1.90;;;;;;;14.80;47.36;98774.56;7003259;28;20681;-79
2023/01/12 13:17:42;;;;;;;3.20;1.60;;;;;;;14.57;47.52;98783.44;7001639;28;20263;-79
2023/01/12 13:21:04;;;;;;;1.50;1.40;;;;;;;14.08;48.72;98747.59;7002741;28;20296;-79
2023/01/12 13:24:39;;;;;;;1.90;1.80;;;;;;;14.22;48.60;98774.34;7004832;28;20213;-80
2023/01/12 13:28:17;;;;;;;4.20;1.80;;;;;;;14.78;47.48;98765.81;7003925;28;20626;-79
2023/01/12 13:31:38;;;;;;;2.43;1.33;;;;;;;14.89;47.25;98767.72;7006889;28;20226;-79
2023/01/12 13:35:00;;;;;;;2.80;1.53;;;;;;;14.91;47.14;98758.28;7006591;28;20203;-78
2023/01/12 13:38:38;;;;;;;2.57;1.43;;;;;;;14.91;46.95;98765.59;7007478;28;20206;-79
2023/01/12 13:45:51;;;;;;;3.20;1.40;;;;;;;14.70;47.67;98774.28;6979966;28;20723;-80
2023/01/12 13:49:30;;;;;;;1.20;1.17;;;;;;;14.49;48.24;98766.66;6994596;28;20328;-79
2023/01/12 13:52:58;;;;;;;3.63;1.60;;;;;;;14.47;48.23;98741.66;7010077;28;20640;-79
2023/01/12 13:56:20;;;;;;;2.57;1.20;;;;;;;14.33;48.79;98770.84;7006958;28;20219;-79
2023/01/12 13:59:55;;;;;;;1.37;1.20;;;;;;;14.29;49.06;98768.84;7006553;28;20303;-79
2023/01/12 14:03:28;;;;;;;1.70;1.20;;;;;;;14.58;48.57;98782.38;7002281;28;20574;-78
2023/01/12 14:06:59;;;;;;;1.63;1.53;;;;;;;14.84;47.86;98787.44;6978942;28;20255;-78
2023/01/12 14:10:32;;;;;;;1.60;1.50;;;;;;;14.39;48.91;98771.84;7008491;28;20340;-79
2023/01/12 14:17:47;;;;;;;1.40;1.30;;;;;;;14.41;48.80;98769.72;7007802;28;20210;-79
2023/01/12 14:17:48;;;;;;;1.73;1.43;;;;;;;13.77;50.19;98759.47;7009162;28;20296;-79
2023/01/12 14:21:21;;;;;;;1.50;1.40;;;;;;;14.18;49.71;98781.25;7009031;28;20205;-79
2023/01/12 14:24:43;;;;;;;1.30;1.20;;;;;;;14.61;48.63;98762.94;7007720;28;20713;-79
2023/01/12 14:28:04;;;;;;;4.83;1.90;;;;;;;14.17;49.54;98754.38;7007859;28;20313;-79
2023/01/12 14:31:29;;;;;;;1.67;1.53;;;;;;;13.86;49.90;98733.69;7007134;28;20264;-79
2023/01/12 14:34:53;;;;;;;1.40;1.30;;;;;;;14.13;49.74;98726.03;7007215;28;20209;-79
2023/01/12 14:38:16;;;;;;;2.07;1.67;;;;;;;14.21;49.51;98742.03;7007505;28;20265;-79
2023/01/12 14:49:02;;;;;;;1.47;1.30;;;;;;;14.18;49.34;98729.75;7006058;28;20188;-79
2023/01/12 14:52:30;;;;;;;1.53;1.20;;;;;;;13.84;50.05;98722.25;7005864;28;20253;-79
2023/01/12 14:55:51;;;;;;;1.60;1.50;;;;;;;14.39;49.07;98747.41;7007964;28;20316;-78
2023/01/12 14:59:14;;;;;;;1.43;1.33;;;;;;;14.41;48.73;98742.59;7004603;28;20672;-78
2023/01/12 15:02:37;;;;;;;1.10;1.10;;;;;;;14.31;48.71;98759.41;7004208;28;20574;-78
2023/01/12 15:05:59;;;;;;;1.37;1.30;;;;;;;14.30;48.49;98732.50;7003779;28;20660;-79
2023/01/12 15:09:28;;;;;;;1.53;1.30;;;;;;;14.23;48.61;98726.38;7004869;28;20289;-78
2023/01/12 15:12:53;;;;;;;1.60;1.30;;;;;;;14.82;48.02;98758.84;7004501;28;20573;-78
2023/01/12 15:27:16;;;;;;;1.30;1.20;;;;;;;14.74;48.16;98759.22;7003974;28;20621;-78
2023/01/12 15:30:38;;;;;;;1.60;1.50;;;;;;;14.38;48.79;98754.72;7004944;28;20273;-78
2023/01/12 15:34:00;;;;;;;2.60;1.50;;;;;;;14.83;48.06;98752.38;7001197;28;20301;-78
2023/01/12 15:37:22;;;;;;;2.40;1.60;;;;;;;15.03;47.58;98739.28;7001753;28;20850;-78
2023/01/12 15:40:43;;;;;;;1.83;1.60;;;;;;;14.36;48.73;98734.31;7003783;28;20202;-78
2023/01/12 15:44:11;;;;;;;1.50;1.30;;;;;;;14.73;48.32;98747.50;7002413;28;20215;-78
2023/01/12 15:47:33;;;;;;;2.13;1.50;;;;;;;14.48;48.54;98752.28;7003830;28;20228;-80
2023/01/12 15:50:54;;;;;;;2.93;1.50;;;;;;;14.67;48.67;98750.31;7004382;28;20227;-78
2023/01/12 15:54:17;;;;;;;2.37;1.50;;;;;;;14.76;47.83;98725.31;7004541;28;20694;-80
2023/01/12 15:57:39;;;;;;;2.50;2.07;;;;;;;14.40;48.97;98739.03;7004266;28;20267;-78
2023/01/12 16:01:05;;;;;;;2.63;2.43;;;;;;;14.23;49.49;98753.47;6992567;28;20195;-78
2023/01/12 16:04:28;;;;;;;2.33;1.70;;;;;;;14.40;49.37;98755.31;6992308;28;20197;-78
2023/01/12 16:07:49;;;;;;;2.20;1.60;;;;;;;14.47;48.90;98738.94;6989876;28;20245;-78
2023/01/12 16:11:16;;;;;;;3.57;1.70;;;;;;;14.56;48.77;98742.97;6974382;28;20211;-78
2023/01/12 16:14:38;;;;;;;3.83;1.90;;;;;;;14.15;49.96;98724.75;6973614;28;20275;-78
2023/01/12 16:18:01;;;;;;;4.93;2.17;;;;;;;14.85;48.19;98726.63;6977266;28;20245;-78
2023/01/12 16:21:22;;;;;;;4.83;1.63;;;;;;;14.42;48.66;98727.94;7002751;28;20238;-78
2023/01/12 16:24:44;;;;;;;2.93;1.80;;;;;;;14.24;49.00;98714.44;6998097;28;20258;-78
2023/01/12 16:28:05;;;;;;;2.20;1.47;;;;;;;14.34;48.91;98709.31;6985481;28;20306;-78
2023/01/12 16:31:27;;;;;;;3.23;1.40;;;;;;;14.49;48.89;98710.53;6981661;28;20205;-78
2023/01/12 16:34:50;;;;;;;6.90;1.60;;;;;;;13.89;49.95;98725.13;6995004;28;20274;-77
2023/01/12 16:38:13;;;;;;;3.40;1.80;;;;;;;13.93;49.72;98720.88;6997925;28;20287;-78
2023/01/12 16:41:34;;;;;;;2.53;2.13;;;;;;;14.32;49.20;98720.38;7019162;28;20245;-78
2023/01/12 16:44:56;;;;;;;2.67;2.00;;;;;;;14.50;48.29;98714.06;6987234;28;20716;-78
2023/01/12 16:48:18;;;;;;;1.73;1.50;;;;;;;14.46;48.66;98729.97;6998535;28;20314;-78
2023/01/12 16:51:41;;;;;;;5.53;1.70;;;;;;;14.64;47.90;98727.19;6988921;28;20247;-77
2023/01/12 16:55:04;;;;;;;1.80;1.63;;;;;;;14.17;48.88;98725.34;6985307;28;20236;-79
2023/01/12 16:58:26;;;;;;;1.67;1.57;;;;;;;14.29;49.03;98722.72;6990061;28;20202;-79
2023/01/12 17:01:50;;;;;;;2.33;1.67;;;;;;;14.43;48.43;98708.75;6983389;28;20195;-78
2023/01/12 17:05:11;;;;;;;4.37;1.73;;;;;;;14.44;48.29;98710.41;6981241;28;20245;-77
2023/01/12 17:08:34;;;;;;;1.60;1.50;;;;;;;14.53;47.94;98716.31;6991362;28;20202;-80
2023/01/12 17:11:57;;;;;;;2.17;1.70;;;;;;;14.35;48.60;98708.25;6997668;28;20605;-78
2023/01/12 17:15:18;;;;;;;2.87;1.30;;;;;;;14.25;48.83;98713.38;6991778;28;20738;-77
2023/01/12 17:18:40;;;;;;;2.20;1.63;;;;;;;14.25;48.74;98716.94;6987767;28;20339;-78
2023/01/12 17:22:02;;;;;;;3.30;1.80;;;;;;;14.82;47.66;98704.56;7002080;28;20206;-77